createdAt,value
2022-09-17T00:02:13.885Z,1.05
2022-09-17T00:05:02.405Z,0.95
2022-09-17T00:07:36.346Z,1.15
2022-09-17T00:10:24.413Z,1.00
2022-09-17T00:13:04.405Z,1.33
2022-09-17T00:15:49.797Z,0.90
2022-09-17T00:18:30.391Z,1.63
2022-09-17T00:21:18.412Z,1.17
2022-09-17T00:24:09.410Z,1.23
2022-09-17T00:26:50.551Z,1.30
2022-09-17T00:29:37.415Z,1.27
2022-09-17T00:32:18.428Z,0.95
2022-09-17T00:35:12.378Z,1.13
2022-09-17T00:40:33.559Z,1.13
2022-09-17T00:43:19.401Z,1.00
2022-09-17T00:45:59.449Z,1.33
2022-09-17T00:48:40.409Z,1.00
2022-09-17T00:51:23.436Z,1.27
2022-09-17T00:54:04.393Z,1.10
2022-09-17T00:56:46.657Z,0.88
2022-09-17T00:59:29.406Z,0.80
2022-09-17T01:02:04.021Z,0.70
2022-09-17T01:04:51.405Z,0.75
2022-09-17T01:08:04.402Z,0.88
2022-09-17T01:10:55.836Z,0.93
2022-09-17T01:13:55.418Z,1.40
2022-09-17T01:16:45.387Z,0.82
2022-09-17T01:19:31.290Z,1.33
2022-09-17T01:22:25.406Z,0.90
2022-09-17T01:25:17.873Z,0.90
2022-09-17T01:28:16.395Z,0.73
2022-09-17T01:31:13.927Z,0.70
2022-09-17T01:34:08.424Z,1.17
2022-09-17T01:36:48.522Z,0.73
2022-09-17T01:39:55.439Z,0.95
2022-09-17T01:42:35.351Z,1.00
2022-09-17T01:46:05.444Z,0.85
2022-09-17T01:48:51.419Z,1.15
2022-09-17T01:51:33.495Z,0.63
2022-09-17T01:54:22.402Z,0.65
2022-09-17T01:57:16.378Z,1.17
2022-09-17T01:59:59.423Z,0.75
2022-09-17T02:02:42.575Z,1.15
2022-09-17T02:05:46.422Z,0.43
2022-09-17T02:08:33.418Z,1.08
2022-09-17T02:11:29.413Z,0.90
2022-09-17T02:14:21.411Z,0.75
2022-09-17T02:17:01.666Z,1.05
2022-09-17T02:19:49.414Z,0.98
2022-09-17T02:22:26.470Z,1.60
2022-09-17T02:27:57.408Z,1.23
2022-09-17T02:30:38.500Z,0.70
2022-09-17T02:33:21.426Z,0.93
2022-09-17T02:36:02.519Z,0.77
2022-09-17T02:38:42.431Z,1.80
2022-09-17T02:41:23.450Z,1.00
2022-09-17T02:44:22.417Z,0.68
2022-09-17T02:47:09.497Z,0.80
2022-09-17T02:49:50.400Z,1.40
2022-09-17T02:52:49.470Z,0.90
2022-09-17T02:55:33.408Z,0.52
2022-09-17T02:58:14.481Z,0.52
2022-09-17T03:00:55.460Z,0.50
2022-09-17T03:03:48.430Z,1.30
2022-09-17T03:06:23.099Z,0.88
2022-09-17T03:09:10.396Z,0.70
2022-09-17T03:11:44.441Z,4.00
2022-09-17T03:14:32.443Z,0.60
2022-09-17T03:17:06.344Z,0.90
2022-09-17T03:19:54.404Z,0.73
2022-09-17T03:22:28.452Z,0.50
2022-09-17T03:25:16.422Z,0.82
2022-09-17T03:27:50.827Z,0.68
2022-09-17T03:30:38.416Z,0.90
2022-09-17T03:33:12.501Z,0.60
2022-09-17T03:36:00.442Z,1.80
2022-09-17T03:38:34.447Z,0.70
2022-09-17T03:41:22.406Z,0.93
2022-09-17T03:43:56.351Z,0.68
2022-09-17T03:46:44.456Z,0.60
2022-09-17T03:49:19.356Z,0.40
2022-09-17T03:52:07.448Z,1.08
2022-09-17T03:54:41.323Z,0.93
2022-09-17T03:57:29.430Z,0.98
2022-09-17T04:00:11.420Z,1.30
2022-09-17T04:02:52.586Z,0.68
2022-09-17T04:05:32.443Z,0.85
2022-09-17T04:08:13.493Z,1.08
2022-09-17T04:10:54.409Z,1.13
2022-09-17T04:13:42.401Z,1.00
2022-09-17T04:16:23.552Z,0.47
2022-09-17T04:19:11.430Z,0.80
2022-09-17T04:21:45.370Z,0.80
2022-09-17T04:24:33.416Z,1.58
2022-09-17T04:27:13.412Z,0.90
2022-09-17T04:29:54.501Z,0.80
2022-09-17T04:32:34.423Z,1.38
2022-09-17T04:35:22.424Z,1.08
2022-09-17T04:38:03.448Z,0.93
2022-09-17T04:40:44.661Z,1.05
2022-09-17T04:43:25.421Z,1.27
2022-09-17T04:46:06.630Z,0.80
2022-09-17T04:48:47.426Z,1.23
2022-09-17T04:51:35.421Z,0.90
2022-09-17T04:54:09.496Z,1.20
2022-09-17T04:56:57.443Z,1.40
2022-09-17T04:59:37.403Z,1.05
2022-09-17T05:02:18.508Z,1.38
2022-09-17T05:04:58.418Z,1.02
2022-09-17T05:07:46.442Z,1.00
2022-09-17T05:10:28.439Z,1.38
2022-09-17T05:13:16.437Z,0.90
2022-09-17T05:15:50.495Z,1.88
2022-09-17T05:18:38.441Z,1.05
2022-09-17T05:21:19.432Z,1.42
2022-09-17T05:24:08.427Z,0.82
2022-09-17T05:26:55.428Z,1.25
2022-09-17T05:29:36.442Z,1.40
2022-09-17T05:32:30.417Z,1.45
2022-09-17T05:35:18.449Z,1.45
2022-09-17T05:37:59.406Z,1.25
2022-09-17T05:40:46.454Z,1.30
2022-09-17T05:43:27.418Z,1.80
2022-09-17T05:46:14.543Z,1.63
2022-09-17T05:48:55.443Z,1.65
2022-09-17T05:51:49.398Z,0.95
2022-09-17T05:54:37.439Z,1.58
2022-09-17T05:57:11.547Z,1.40
2022-09-17T05:59:58.459Z,2.65
2022-09-17T06:02:39.474Z,2.13
2022-09-17T06:05:33.422Z,2.42
2022-09-17T06:11:02.638Z,1.48
2022-09-17T06:13:59.500Z,2.13
2022-09-17T06:16:46.474Z,1.58
2022-09-17T06:19:20.619Z,2.47
2022-09-17T06:22:08.441Z,1.70
2022-09-17T06:24:49.431Z,2.00
2022-09-17T06:27:47.421Z,2.22
2022-09-17T06:30:34.435Z,1.92
2022-09-17T06:33:15.424Z,1.17
2022-09-17T06:36:12.458Z,2.22
2022-09-17T06:38:54.452Z,1.60
2022-09-17T06:41:43.460Z,1.42
2022-09-17T06:44:24.427Z,2.17
2022-09-17T06:47:12.446Z,1.60
2022-09-17T06:49:53.455Z,1.90
2022-09-17T06:52:47.431Z,1.80
2022-09-17T06:55:34.461Z,2.50
2022-09-17T06:58:22.435Z,1.38
2022-09-17T07:01:07.488Z,2.60
2022-09-17T07:03:49.837Z,1.60
2022-09-17T07:06:31.437Z,3.03
2022-09-17T07:09:19.442Z,2.92
2022-09-17T07:12:13.454Z,2.17
2022-09-17T07:17:37.465Z,2.80
2022-09-17T07:20:11.497Z,2.50
2022-09-17T07:23:03.426Z,3.00
2022-09-17T07:25:37.524Z,4.10
2022-09-17T07:28:24.436Z,3.53
2022-09-17T07:30:58.581Z,1.85
2022-09-17T07:33:46.476Z,1.65
2022-09-17T07:36:22.823Z,1.48
2022-09-17T07:39:09.458Z,1.60
2022-09-17T07:41:50.439Z,1.40
2022-09-17T07:44:45.460Z,1.30
2022-09-17T07:47:32.430Z,1.30
2022-09-17T07:50:13.564Z,1.30
2022-09-17T07:52:54.471Z,1.00
2022-09-17T07:55:35.497Z,1.50
2022-09-17T07:58:16.510Z,1.05
2022-09-17T08:00:57.479Z,1.30
2022-09-17T08:03:38.453Z,1.52
2022-09-17T08:06:27.448Z,1.35
2022-09-17T08:09:07.465Z,1.30
2022-09-17T08:11:56.794Z,1.15
2022-09-17T08:14:37.436Z,0.93
2022-09-17T08:17:25.481Z,1.38
2022-09-17T08:20:05.453Z,1.30
2022-09-17T08:22:50.005Z,1.25
2022-09-17T08:25:31.450Z,1.30
2022-09-17T08:28:19.434Z,0.80
2022-09-17T08:31:00.539Z,1.30
2022-09-17T08:33:53.454Z,1.20
2022-09-17T08:36:34.444Z,1.10
2022-09-17T08:39:15.541Z,1.48
2022-09-17T08:41:58.484Z,1.90
2022-09-17T08:44:57.291Z,1.80
2022-09-17T08:47:36.533Z,1.85
2022-09-17T08:50:39.481Z,2.00
2022-09-17T08:53:13.512Z,1.48
2022-09-17T08:56:05.458Z,1.45
2022-09-17T08:58:54.612Z,1.38
2022-09-17T09:01:42.603Z,1.98
2022-09-17T09:04:36.450Z,1.70
2022-09-17T09:07:31.311Z,1.70
2022-09-17T09:10:32.475Z,1.40
2022-09-17T09:13:20.447Z,1.73
2022-09-17T09:15:57.646Z,2.10
2022-09-17T09:18:46.456Z,2.05
2022-09-17T09:21:25.515Z,1.30
2022-09-17T09:24:23.465Z,1.70
2022-09-17T09:27:04.448Z,1.70
2022-09-17T09:30:10.485Z,1.80
2022-09-17T09:32:47.195Z,1.27
2022-09-17T09:35:34.492Z,1.58
2022-09-17T09:38:16.686Z,1.80
2022-09-17T09:41:31.465Z,1.70
2022-09-17T09:44:06.681Z,1.48
2022-09-17T09:46:57.564Z,1.40
2022-09-17T09:49:45.112Z,1.48
2022-09-17T09:52:32.462Z,1.85
2022-09-17T09:55:57.467Z,1.40
2022-09-17T09:58:46.503Z,1.23
2022-09-17T10:01:32.597Z,1.33
2022-09-17T10:04:34.446Z,1.77
2022-09-17T10:07:21.488Z,1.00
2022-09-17T10:09:56.152Z,1.20
2022-09-17T10:12:42.465Z,1.42
2022-09-17T10:15:30.525Z,1.00
2022-09-17T10:18:24.484Z,1.17
2022-09-17T10:20:58.580Z,1.30
2022-09-17T10:23:46.548Z,1.60
2022-09-17T10:26:38.487Z,1.23
2022-09-17T10:29:34.461Z,1.17
2022-09-17T10:32:26.509Z,1.80
2022-09-17T10:35:07.243Z,1.30
2022-09-17T10:37:58.469Z,1.10
2022-09-17T10:40:46.508Z,1.20
2022-09-17T10:43:23.226Z,1.00
2022-09-17T10:46:11.532Z,1.20
2022-09-17T10:48:47.463Z,1.07
2022-09-17T10:51:37.466Z,1.23
2022-09-17T10:54:20.496Z,1.13
2022-09-17T10:57:04.543Z,0.82
2022-09-17T10:59:44.495Z,1.30
2022-09-17T11:02:41.558Z,1.50
2022-09-17T11:05:51.493Z,0.80
2022-09-17T11:08:48.522Z,1.08
2022-09-17T11:11:32.320Z,1.00
2022-09-17T11:14:42.487Z,0.98
2022-09-17T11:17:25.709Z,0.70
2022-09-17T11:20:25.513Z,0.68
2022-09-17T11:25:49.489Z,0.80
2022-09-17T11:28:45.549Z,0.80
2022-09-17T11:31:36.585Z,0.63
2022-09-17T11:34:42.574Z,2.22
2022-09-17T11:37:29.511Z,1.05
2022-09-17T11:40:20.553Z,1.92
2022-09-17T11:42:57.420Z,3.03
2022-09-17T11:45:45.502Z,0.80
2022-09-17T11:48:21.406Z,1.10
2022-09-17T11:51:29.497Z,0.80
2022-09-17T11:54:28.489Z,0.80
2022-09-17T11:57:39.495Z,1.10
2022-09-17T12:00:20.517Z,0.95
2022-09-17T12:03:13.540Z,0.90
2022-09-17T12:05:52.119Z,0.82
2022-09-17T12:09:06.484Z,0.80
2022-09-17T12:11:47.884Z,0.75
2022-09-17T12:14:37.524Z,1.10
2022-09-17T12:17:38.526Z,1.10
2022-09-17T12:20:21.500Z,1.02
2022-09-17T12:23:23.499Z,1.20
2022-09-17T12:26:29.545Z,1.25
2022-09-17T12:29:10.494Z,1.30
2022-09-17T12:32:16.021Z,1.40
2022-09-17T12:35:59.869Z,1.10
2022-09-17T12:39:03.261Z,1.88
2022-09-17T12:42:00.495Z,0.80
2022-09-17T12:44:58.713Z,1.10
2022-09-17T12:48:04.507Z,0.90
2022-09-17T12:51:00.497Z,1.20
2022-09-17T12:53:44.556Z,1.00
2022-09-17T12:56:33.512Z,1.00
2022-09-17T12:59:22.521Z,1.10
2022-09-17T13:02:19.536Z,1.27
2022-09-17T13:05:07.504Z,1.30
2022-09-17T13:07:56.687Z,1.13
2022-09-17T13:10:53.547Z,1.10
2022-09-17T13:13:37.506Z,1.25
2022-09-17T13:16:44.570Z,1.30
2022-09-17T13:19:37.499Z,1.52
2022-09-17T13:22:12.595Z,1.13
2022-09-17T13:25:24.518Z,1.92
2022-09-17T13:28:22.521Z,2.17
2022-09-17T13:31:11.524Z,2.35
2022-09-17T13:34:12.511Z,2.78
2022-09-17T13:37:07.506Z,2.42
2022-09-17T13:39:58.532Z,2.28
2022-09-17T13:42:52.918Z,2.15
2022-09-17T13:45:40.501Z,1.80
2022-09-17T13:48:18.614Z,1.50
2022-09-17T13:51:25.536Z,1.35
2022-09-17T13:54:00.697Z,2.10
2022-09-17T13:56:57.530Z,1.30
2022-09-17T13:59:38.604Z,1.90
2022-09-17T14:02:30.584Z,1.77
2022-09-17T14:05:30.514Z,1.55
2022-09-17T14:08:26.514Z,1.30
2022-09-17T14:11:35.520Z,1.23
2022-09-17T14:14:11.623Z,1.40
2022-09-17T14:16:59.527Z,1.17
2022-09-17T14:19:55.872Z,1.25
2022-09-17T14:22:36.515Z,1.30
2022-09-17T14:25:23.616Z,1.45
2022-09-17T14:28:22.549Z,1.50
2022-09-17T14:31:04.758Z,1.23
2022-09-17T14:33:46.540Z,0.82
2022-09-17T14:36:36.514Z,1.00
2022-09-17T14:42:08.623Z,1.30
2022-09-17T14:44:55.512Z,1.13
2022-09-17T14:50:29.530Z,1.55
2022-09-17T14:53:14.606Z,1.80
2022-09-17T14:55:56.543Z,2.25
2022-09-17T14:58:37.698Z,1.95
2022-09-17T15:01:32.611Z,2.20
2022-09-17T15:04:29.626Z,2.00
2022-09-17T15:07:18.559Z,1.50
2022-09-17T15:10:06.662Z,1.38
2022-09-17T15:12:47.585Z,1.55
2022-09-17T15:15:30.613Z,1.40
2022-09-17T15:18:11.557Z,0.70
2022-09-17T15:20:54.611Z,1.50
2022-09-17T15:23:35.542Z,2.17
2022-09-17T15:26:23.574Z,1.30
2022-09-17T15:28:57.963Z,1.40
2022-09-17T15:31:45.599Z,1.80
2022-09-17T15:34:25.545Z,1.70
2022-09-17T15:37:20.567Z,1.58
2022-09-17T15:39:56.745Z,1.92
2022-09-17T15:42:45.590Z,1.60
2022-09-17T15:45:28.550Z,1.53
2022-09-17T15:48:11.178Z,2.28
2022-09-17T15:50:59.539Z,2.35
2022-09-17T15:53:41.608Z,1.40
2022-09-17T15:56:31.519Z,1.38
2022-09-17T15:59:09.636Z,1.25
2022-09-17T16:01:59.632Z,1.35
2022-09-17T16:04:33.713Z,1.30
2022-09-17T16:07:20.563Z,1.10
2022-09-17T16:10:00.693Z,1.50
2022-09-17T16:12:47.544Z,1.13
2022-09-17T16:15:21.639Z,1.20
2022-09-17T16:18:08.585Z,1.30
2022-09-17T16:20:42.691Z,1.40
2022-09-17T16:23:29.535Z,1.35
2022-09-17T16:26:04.603Z,1.10
2022-09-17T16:28:53.528Z,1.15
2022-09-17T16:31:27.692Z,1.13
2022-09-17T16:34:14.539Z,1.13
2022-09-17T16:36:48.600Z,1.40
2022-09-17T16:39:35.547Z,1.30
2022-09-17T16:42:09.633Z,1.95
2022-09-17T16:44:56.580Z,1.35
2022-09-17T16:47:37.561Z,1.58
2022-09-17T16:50:32.552Z,1.95
2022-09-17T16:53:20.545Z,2.00
2022-09-17T16:55:54.646Z,2.10
2022-09-17T16:58:42.563Z,2.05
2022-09-17T17:01:17.715Z,1.73
2022-09-17T17:04:07.565Z,1.73
2022-09-17T17:06:55.635Z,2.15
2022-09-17T17:09:29.502Z,2.50
2022-09-17T17:12:17.566Z,1.67
2022-09-17T17:14:52.603Z,1.27
2022-09-17T17:17:42.597Z,1.67
2022-09-17T17:20:16.909Z,2.03
2022-09-17T17:23:04.573Z,1.85
2022-09-17T17:25:38.545Z,1.75
2022-09-17T17:28:26.552Z,1.70
2022-09-17T17:31:00.557Z,2.05
2022-09-17T17:33:48.647Z,2.25
2022-09-17T17:36:22.503Z,1.98
2022-09-17T17:39:11.571Z,2.30
2022-09-17T17:41:49.653Z,2.03
2022-09-17T17:44:32.569Z,2.60
2022-09-17T17:47:13.578Z,3.00
2022-09-17T17:49:55.577Z,3.40
2022-09-17T17:52:45.589Z,4.20
2022-09-17T17:55:19.544Z,6.38
2022-09-17T17:58:10.582Z,5.35
2022-09-17T18:00:44.519Z,5.10
2022-09-17T18:03:32.587Z,4.47
2022-09-17T18:06:26.582Z,3.05
2022-09-17T18:09:14.682Z,2.30
2022-09-17T18:11:48.759Z,2.35
2022-09-17T18:14:35.655Z,2.67
2022-09-17T18:17:09.732Z,2.03
2022-09-17T18:19:58.587Z,3.08
2022-09-17T18:22:32.711Z,3.33
2022-09-17T18:25:19.660Z,2.80
2022-09-17T18:28:00.692Z,2.70
2022-09-17T18:30:55.664Z,2.40
2022-09-17T18:33:43.575Z,2.80
2022-09-17T18:36:17.693Z,2.50
2022-09-17T18:42:03.671Z,2.38
2022-09-17T18:44:51.614Z,2.72
2022-09-17T18:47:32.602Z,2.60
2022-09-17T18:50:26.675Z,2.50
2022-09-17T18:53:13.569Z,4.35
2022-09-17T18:55:54.961Z,6.45
2022-09-17T18:58:34.576Z,4.78
2022-09-17T19:01:22.643Z,2.55
2022-09-17T19:03:56.936Z,2.33
2022-09-17T19:06:44.653Z,3.00
2022-09-17T19:09:18.510Z,2.40
2022-09-17T19:12:06.578Z,2.15
2022-09-17T19:14:46.629Z,2.50
2022-09-17T19:17:34.989Z,2.45
2022-09-17T19:20:16.048Z,2.83
2022-09-17T19:22:56.612Z,3.47
2022-09-17T19:25:36.781Z,3.60
2022-09-17T19:28:17.625Z,3.97
2022-09-17T19:30:57.820Z,4.70
2022-09-17T19:33:38.741Z,2.75
2022-09-17T19:36:20.699Z,3.28
2022-09-17T19:39:01.669Z,3.28
2022-09-17T19:41:41.721Z,3.28
2022-09-17T19:44:22.717Z,3.13
2022-09-17T19:47:02.723Z,3.00
2022-09-17T19:49:43.642Z,3.70
2022-09-17T19:52:37.603Z,3.25
2022-09-17T19:55:25.597Z,2.67
2022-09-17T19:58:10.629Z,3.08
2022-09-17T20:01:11.595Z,3.03
2022-09-17T20:03:59.660Z,2.95
2022-09-17T20:06:33.653Z,3.10
2022-09-17T20:09:20.611Z,2.13
2022-09-17T20:11:54.702Z,2.72
2022-09-17T20:14:41.584Z,2.47
2022-09-17T20:17:15.698Z,2.72
2022-09-17T20:20:02.605Z,2.17
2022-09-17T20:22:43.586Z,2.25
2022-09-17T20:25:37.597Z,2.83
2022-09-17T20:28:24.588Z,4.13
2022-09-17T20:31:09.667Z,2.35
2022-09-17T20:34:01.757Z,3.97
2022-09-17T20:36:37.653Z,2.47
2022-09-17T20:39:25.916Z,2.20
2022-09-17T20:41:59.728Z,2.88
2022-09-17T20:44:46.606Z,2.42
2022-09-17T20:47:20.669Z,2.35
2022-09-17T20:50:07.584Z,3.67
2022-09-17T20:52:48.652Z,2.00
2022-09-17T20:55:36.599Z,2.70
2022-09-17T20:58:10.815Z,2.45
2022-09-17T21:00:59.583Z,2.28
2022-09-17T21:03:40.637Z,2.17
2022-09-17T21:06:35.606Z,2.67
2022-09-17T21:09:23.589Z,2.28
2022-09-17T21:11:57.664Z,2.20
2022-09-17T21:14:45.587Z,2.60
2022-09-17T21:17:19.702Z,2.88
2022-09-17T21:20:06.586Z,2.45
2022-09-17T21:22:40.735Z,2.65
2022-09-17T21:25:27.611Z,2.80
2022-09-17T21:28:01.686Z,3.47
2022-09-17T21:30:51.661Z,2.53
2022-09-17T21:33:25.658Z,2.75
2022-09-17T21:36:13.601Z,2.35
2022-09-17T21:38:48.672Z,2.33
2022-09-17T21:41:41.461Z,3.60
2022-09-17T21:44:30.618Z,2.40
2022-09-17T21:47:06.950Z,2.80
2022-09-17T21:49:56.627Z,2.40
2022-09-17T21:52:30.602Z,2.10
2022-09-17T21:55:19.697Z,2.40
2022-09-17T21:58:00.609Z,2.33
2022-09-17T22:00:49.605Z,1.80
2022-09-17T22:03:23.567Z,2.17
2022-09-17T22:06:21.628Z,2.03
2022-09-17T22:08:56.755Z,2.15
2022-09-17T22:11:48.612Z,2.38
2022-09-17T22:14:24.781Z,2.05
2022-09-17T22:17:12.617Z,1.23
2022-09-17T22:19:52.609Z,2.53
2022-09-17T22:22:33.691Z,2.03
2022-09-17T22:25:14.599Z,2.58
2022-09-17T22:28:19.600Z,2.38
2022-09-17T22:30:59.679Z,2.42
2022-09-17T22:33:40.661Z,2.65
2022-09-17T22:36:22.640Z,2.70
2022-09-17T22:39:04.691Z,1.30
2022-09-17T22:41:51.614Z,2.22
2022-09-17T22:44:26.719Z,2.05
2022-09-17T22:47:13.598Z,2.42
2022-09-17T22:49:54.620Z,1.67
2022-09-17T22:52:48.655Z,2.60
2022-09-17T22:55:35.610Z,2.20
2022-09-17T22:58:09.688Z,3.05
2022-09-17T23:01:01.635Z,2.28
2022-09-17T23:03:35.787Z,6.03
2022-09-17T23:06:26.628Z,2.00
2022-09-17T23:09:00.765Z,2.70
2022-09-17T23:11:48.599Z,2.08
2022-09-17T23:14:22.676Z,2.17
2022-09-17T23:17:09.650Z,2.78
2022-09-17T23:19:43.675Z,2.72
2022-09-17T23:22:31.615Z,2.83
2022-09-17T23:25:05.709Z,2.63
2022-09-17T23:27:53.632Z,3.00
2022-09-17T23:30:27.810Z,2.88
2022-09-17T23:33:15.616Z,3.08
2022-09-17T23:35:56.665Z,2.50
2022-09-17T23:38:43.618Z,1.85
2022-09-17T23:41:44.633Z,2.92
2022-09-17T23:44:31.636Z,2.90
2022-09-17T23:47:12.632Z,3.10
2022-09-17T23:50:06.613Z,2.58
2022-09-17T23:55:27.705Z,3.63
2022-09-17T23:58:08.620Z,3.20
